createdAt,value
2023-03-25T00:00:14.509Z,10.79
2023-03-25T00:05:22.026Z,10.85
2023-03-25T00:10:27.158Z,10.80
2023-03-25T00:15:35.617Z,10.85
2023-03-25T00:20:41.077Z,10.79
2023-03-25T00:25:46.282Z,10.69
2023-03-25T00:30:54.040Z,10.70
2023-03-25T00:36:00.664Z,10.72
2023-03-25T00:41:17.782Z,10.59
2023-03-25T00:46:29.188Z,10.50
2023-03-25T00:51:34.577Z,10.50
2023-03-25T00:56:39.788Z,10.46
2023-03-25T01:01:47.612Z,10.46
2023-03-25T01:06:55.333Z,10.39
2023-03-25T01:12:01.003Z,10.36
2023-03-25T01:17:08.955Z,10.34
2023-03-25T01:22:15.483Z,10.40
2023-03-25T01:27:26.799Z,10.34
2023-03-25T01:32:34.883Z,10.24
2023-03-25T01:37:40.105Z,10.25
2023-03-25T01:42:49.653Z,10.20
2023-03-25T01:48:04.764Z,10.23
2023-03-25T01:53:11.973Z,10.28
2023-03-25T01:58:21.073Z,10.31
2023-03-25T02:03:29.686Z,10.32
2023-03-25T02:08:41.106Z,10.40
2023-03-25T02:13:49.477Z,10.66
2023-03-25T02:19:12.750Z,10.60
2023-03-25T02:25:02.202Z,10.52
2023-03-25T02:30:37.570Z,10.47
2023-03-25T02:36:04.027Z,10.30
2023-03-25T02:41:19.624Z,10.58
2023-03-25T02:46:27.643Z,10.70
2023-03-25T02:51:38.550Z,10.71
2023-03-25T02:56:49.889Z,10.65
2023-03-25T03:02:04.286Z,10.67
2023-03-25T03:07:09.535Z,10.77
2023-03-25T03:12:44.230Z,10.82
2023-03-25T03:18:03.577Z,10.81
2023-03-25T03:23:13.810Z,10.76
2023-03-25T03:28:30.071Z,10.80
2023-03-25T03:33:43.218Z,10.80
2023-03-25T03:38:52.406Z,10.70
2023-03-25T03:44:05.545Z,10.76
2023-03-25T03:49:17.295Z,10.73
2023-03-25T03:54:25.819Z,10.66
2023-03-25T03:59:40.525Z,10.56
2023-03-25T04:04:45.691Z,10.61
2023-03-25T04:09:58.005Z,10.60
2023-03-25T04:15:07.728Z,10.60
2023-03-25T04:20:16.568Z,10.58
2023-03-25T04:25:26.460Z,10.69
2023-03-25T04:30:34.100Z,10.57
2023-03-25T04:35:39.314Z,10.65
2023-03-25T04:40:46.881Z,10.64
2023-03-25T04:45:55.808Z,10.64
2023-03-25T04:51:03.751Z,10.71
2023-03-25T04:56:13.260Z,10.70
2023-03-25T05:01:31.105Z,10.73
2023-03-25T05:06:38.581Z,10.60
2023-03-25T05:11:43.982Z,10.51
2023-03-25T05:16:52.224Z,10.51
2023-03-25T05:22:00.572Z,10.40
2023-03-25T05:27:06.030Z,10.45
2023-03-25T05:32:13.954Z,10.55
2023-03-25T05:37:19.823Z,10.48
2023-03-25T05:42:25.636Z,10.46
2023-03-25T05:47:33.697Z,10.63
2023-03-25T05:52:42.145Z,10.71
2023-03-25T05:57:48.004Z,10.99
2023-03-25T06:02:55.796Z,11.33
2023-03-25T06:08:02.488Z,10.80
2023-03-25T06:13:08.078Z,10.59
2023-03-25T06:18:17.544Z,10.53
2023-03-25T06:23:24.040Z,10.43
2023-03-25T06:28:29.386Z,10.36
2023-03-25T06:33:42.902Z,10.49
2023-03-25T06:38:52.490Z,10.49
2023-03-25T06:44:03.817Z,13.06
2023-03-25T06:49:26.959Z,16.22
2023-03-25T06:54:33.987Z,16.65
2023-03-25T06:59:39.098Z,17.05
2023-03-25T07:04:47.076Z,17.24
2023-03-25T07:09:56.125Z,15.02
2023-03-25T07:15:01.136Z,14.80
2023-03-25T07:20:17.302Z,15.10
2023-03-25T07:25:22.787Z,13.83
2023-03-25T07:30:28.201Z,14.77
2023-03-25T07:35:36.333Z,13.46
2023-03-25T07:40:41.700Z,15.30
2023-03-25T07:45:46.860Z,15.16
2023-03-25T07:50:56.308Z,12.70
2023-03-25T07:56:01.245Z,12.23
2023-03-25T08:01:06.811Z,12.43
2023-03-25T08:06:17.664Z,12.14
2023-03-25T08:11:24.204Z,11.61
2023-03-25T08:16:30.000Z,11.56
2023-03-25T08:21:40.582Z,12.03
2023-03-25T08:26:48.214Z,11.47
2023-03-25T08:31:54.006Z,11.52
2023-03-25T08:37:02.089Z,11.33
2023-03-25T08:42:07.428Z,10.56
2023-03-25T08:47:15.030Z,10.60
2023-03-25T08:52:24.301Z,10.13
2023-03-25T08:57:29.496Z,9.86
2023-03-25T09:02:34.833Z,9.50
2023-03-25T09:07:43.266Z,9.44
2023-03-25T09:12:48.512Z,9.42
2023-03-25T09:17:55.583Z,9.25
2023-03-25T09:23:03.218Z,9.35
2023-03-25T09:28:08.756Z,9.48
2023-03-25T09:33:14.437Z,9.68
2023-03-25T09:38:22.931Z,9.45
2023-03-25T09:43:36.149Z,9.22
2023-03-25T09:48:45.821Z,9.21
2023-03-25T09:54:04.446Z,9.05
2023-03-25T09:59:16.978Z,9.55
2023-03-25T10:04:55.705Z,9.70
2023-03-25T10:10:11.168Z,9.09
2023-03-25T10:15:33.940Z,9.83
2023-03-25T10:20:49.166Z,10.17
2023-03-25T10:26:02.927Z,10.78
2023-03-25T10:31:09.995Z,10.72
2023-03-25T10:36:23.875Z,11.49
2023-03-25T10:41:35.786Z,12.12
2023-03-25T10:46:47.904Z,12.14
2023-03-25T10:51:57.752Z,11.64
2023-03-25T10:57:08.366Z,11.88
2023-03-25T11:02:18.816Z,12.04
2023-03-25T11:07:32.006Z,11.37
2023-03-25T11:12:43.207Z,10.59
2023-03-25T11:17:53.256Z,9.72
2023-03-25T11:23:10.867Z,9.20
2023-03-25T11:28:29.021Z,9.95
2023-03-25T11:33:34.654Z,10.17
2023-03-25T11:38:43.292Z,10.02
2023-03-25T11:43:52.839Z,9.93
2023-03-25T11:49:00.109Z,9.81
2023-03-25T11:54:11.282Z,10.04
2023-03-25T11:59:27.332Z,10.67
2023-03-25T12:04:34.191Z,10.37
2023-03-25T12:09:55.962Z,10.80
2023-03-25T12:15:18.303Z,11.85
2023-03-25T12:20:33.041Z,11.87
2023-03-25T12:25:53.960Z,12.07
2023-03-25T12:31:11.787Z,12.60
2023-03-25T12:36:39.012Z,12.57
2023-03-25T12:41:54.813Z,12.04
2023-03-25T12:47:28.091Z,12.05
2023-03-25T12:52:45.005Z,12.60
2023-03-25T12:58:04.493Z,12.43
2023-03-25T13:03:48.632Z,12.32
2023-03-25T13:09:00.926Z,11.15
2023-03-25T13:14:15.572Z,11.85
2023-03-25T13:19:28.089Z,12.02
2023-03-25T13:24:43.329Z,12.99
2023-03-25T13:29:54.931Z,12.32
2023-03-25T13:35:07.384Z,12.01
2023-03-25T13:40:27.342Z,12.59
2023-03-25T13:45:38.424Z,12.70
2023-03-25T13:50:46.946Z,12.51
2023-03-25T13:56:15.991Z,12.45
2023-03-25T14:02:01.458Z,12.68
2023-03-25T14:07:34.414Z,12.64
2023-03-25T14:12:44.438Z,12.85
2023-03-25T14:17:51.317Z,13.05
2023-03-25T14:23:05.674Z,13.17
2023-03-25T14:28:17.034Z,13.28
2023-03-25T14:33:23.289Z,13.19
2023-03-25T14:38:58.034Z,12.96
2023-03-25T14:44:21.686Z,12.95
2023-03-25T14:49:30.397Z,12.80
2023-03-25T14:54:37.577Z,11.67
2023-03-25T14:59:48.617Z,9.81
2023-03-25T15:05:00.798Z,9.36
2023-03-25T15:10:09.416Z,9.07
2023-03-25T15:15:34.178Z,9.01
2023-03-25T15:20:39.245Z,9.25
2023-03-25T15:25:52.389Z,8.99
2023-03-25T15:31:32.115Z,9.21
2023-03-25T15:37:05.816Z,9.18
2023-03-25T15:42:29.701Z,9.88
2023-03-25T15:48:10.908Z,9.89
2023-03-25T15:53:46.883Z,10.12
2023-03-25T15:58:58.004Z,10.02
2023-03-25T16:04:10.305Z,10.23
2023-03-25T16:09:20.492Z,9.91
2023-03-25T16:14:26.088Z,10.09
2023-03-25T16:19:41.701Z,10.05
2023-03-25T16:24:48.046Z,10.06
2023-03-25T16:29:59.367Z,10.10
2023-03-25T16:35:09.103Z,10.06
2023-03-25T16:40:25.798Z,10.15
2023-03-25T16:45:31.005Z,10.13
2023-03-25T16:50:39.605Z,9.90
2023-03-25T16:55:50.256Z,9.78
2023-03-25T17:00:57.394Z,9.87
2023-03-25T17:06:11.341Z,9.82
2023-03-25T17:11:16.688Z,9.80
2023-03-25T17:16:23.685Z,9.74
2023-03-25T17:21:39.165Z,9.85
2023-03-25T17:26:58.467Z,9.82
2023-03-25T17:32:04.690Z,9.92
2023-03-25T17:37:16.706Z,9.87
2023-03-25T17:42:27.047Z,9.89
2023-03-25T17:47:34.604Z,9.96
2023-03-25T17:52:42.488Z,9.71
2023-03-25T17:57:49.958Z,9.62
2023-03-25T18:02:56.272Z,9.51
2023-03-25T18:08:06.326Z,9.50
2023-03-25T18:13:14.030Z,9.33
2023-03-25T18:18:24.407Z,9.41
2023-03-25T18:23:32.830Z,9.40
2023-03-25T18:28:37.900Z,9.22
2023-03-25T18:33:42.937Z,9.29
2023-03-25T18:38:54.533Z,9.20
2023-03-25T18:43:59.553Z,9.38
2023-03-25T18:49:05.351Z,9.45
2023-03-25T18:54:13.360Z,9.50
2023-03-25T18:59:21.764Z,9.68
2023-03-25T19:04:27.428Z,9.58
2023-03-25T19:09:37.598Z,9.62
2023-03-25T19:14:44.976Z,9.51
2023-03-25T19:19:50.059Z,9.55
2023-03-25T19:24:58.063Z,9.72
2023-03-25T19:30:03.274Z,9.65
2023-03-25T19:35:10.651Z,9.64
2023-03-25T19:40:20.497Z,9.63
2023-03-25T19:45:26.950Z,9.54
2023-03-25T19:50:33.429Z,9.53
2023-03-25T19:55:46.322Z,9.57
2023-03-25T20:00:52.051Z,9.50
2023-03-25T20:05:59.958Z,9.57
2023-03-25T20:11:13.933Z,9.36
2023-03-25T20:16:22.071Z,9.41
2023-03-25T20:21:27.489Z,9.39
2023-03-25T20:26:35.460Z,9.32
2023-03-25T20:31:40.942Z,9.39
2023-03-25T20:36:52.429Z,9.52
2023-03-25T20:42:00.301Z,9.47
2023-03-25T20:47:13.469Z,9.44
2023-03-25T20:52:18.582Z,9.51
2023-03-25T20:57:29.021Z,9.31
2023-03-25T21:02:34.524Z,9.16
2023-03-25T21:07:41.412Z,9.07
2023-03-25T21:12:49.383Z,9.10
2023-03-25T21:17:54.367Z,8.99
2023-03-25T21:23:02.792Z,9.04
2023-03-25T21:28:10.580Z,9.19
2023-03-25T21:33:16.682Z,9.00
2023-03-25T21:38:29.123Z,8.99
2023-03-25T21:43:39.931Z,9.07
2023-03-25T21:48:46.976Z,9.12
2023-03-25T21:53:54.334Z,9.12
2023-03-25T21:59:03.634Z,9.11
2023-03-25T22:04:08.736Z,9.21
2023-03-25T22:09:15.985Z,9.20
2023-03-25T22:14:25.280Z,9.32
2023-03-25T22:19:31.300Z,9.30
2023-03-25T22:24:36.333Z,9.26
2023-03-25T22:29:47.107Z,9.22
2023-03-25T22:34:52.369Z,9.26
2023-03-25T22:39:57.572Z,9.34
2023-03-25T22:45:09.289Z,9.22
2023-03-25T22:50:18.167Z,9.24
2023-03-25T22:55:27.275Z,9.33
2023-03-25T23:00:35.114Z,9.18
2023-03-25T23:05:40.647Z,9.30
2023-03-25T23:10:46.937Z,9.21
2023-03-25T23:16:00.217Z,9.31
2023-03-25T23:21:06.088Z,9.14
2023-03-25T23:26:14.929Z,9.24
2023-03-25T23:31:28.160Z,9.21
2023-03-25T23:36:36.665Z,9.13
2023-03-25T23:41:41.939Z,8.92
2023-03-25T23:46:52.207Z,8.88
2023-03-25T23:51:57.810Z,8.80
2023-03-25T23:57:03.224Z,8.59
